sensor_id;sensor_type;location;lat;lon;timestamp;pressure;altitude;pressure_sealevel;temperature;humidity
78383;BME280;67668;52.294;4.692;2023-06-04T00:02:55;102384.81;;;17.60;49.38
78383;BME280;67668;52.294;4.692;2023-06-04T00:05:20;102393.16;;;17.57;49.41
78383;BME280;67668;52.294;4.692;2023-06-04T00:07:47;102388.06;;;17.54;49.61
78383;BME280;67668;52.294;4.692;2023-06-04T00:10:13;102387.53;;;17.50;49.22
78383;BME280;67668;52.294;4.692;2023-06-04T00:12:38;102393.06;;;17.49;49.61
78383;BME280;67668;52.294;4.692;2023-06-04T00:15:04;102386.31;;;17.45;49.92
78383;BME280;67668;52.294;4.692;2023-06-04T00:17:30;102380.41;;;17.41;49.60
78383;BME280;67668;52.294;4.692;2023-06-04T00:19:55;102380.69;;;17.38;49.81
78383;BME280;67668;52.294;4.692;2023-06-04T00:22:21;102382.81;;;17.35;49.69
78383;BME280;67668;52.294;4.692;2023-06-04T00:24:46;102380.44;;;17.32;49.89
78383;BME280;67668;52.294;4.692;2023-06-04T00:27:11;102375.41;;;17.29;50.19
78383;BME280;67668;52.294;4.692;2023-06-04T00:29:37;102379.34;;;17.25;49.61
78383;BME280;67668;52.294;4.692;2023-06-04T00:32:03;102384.16;;;17.21;50.15
78383;BME280;67668;52.294;4.692;2023-06-04T00:34:28;102375.75;;;17.16;49.33
78383;BME280;67668;52.294;4.692;2023-06-04T00:36:54;102384.06;;;17.13;50.22
78383;BME280;67668;52.294;4.692;2023-06-04T00:39:19;102379.97;;;17.09;50.42
78383;BME280;67668;52.294;4.692;2023-06-04T00:41:45;102377.44;;;17.08;50.38
78383;BME280;67668;52.294;4.692;2023-06-04T00:44:10;102380.41;;;17.04;50.12
78383;BME280;67668;52.294;4.692;2023-06-04T00:46:36;102383.38;;;17.01;50.42
78383;BME280;67668;52.294;4.692;2023-06-04T00:49:02;102378.31;;;16.98;50.39
78383;BME280;67668;52.294;4.692;2023-06-04T00:51:30;102377.78;;;16.95;50.50
78383;BME280;67668;52.294;4.692;2023-06-04T00:53:55;102376.25;;;16.92;50.59
78383;BME280;67668;52.294;4.692;2023-06-04T00:56:21;102380.88;;;16.90;50.63
78383;BME280;67668;52.294;4.692;2023-06-04T00:58:46;102379.50;;;16.86;50.58
78383;BME280;67668;52.294;4.692;2023-06-04T01:01:26;102373.44;;;16.84;51.01
78383;BME280;67668;52.294;4.692;2023-06-04T01:03:55;102386.25;;;16.81;50.73
78383;BME280;67668;52.294;4.692;2023-06-04T01:06:28;102380.34;;;16.77;51.10
78383;BME280;67668;52.294;4.692;2023-06-04T01:08:57;102380.63;;;16.74;50.91
78383;BME280;67668;52.294;4.692;2023-06-04T01:11:37;102384.59;;;16.70;50.95
78383;BME280;67668;52.294;4.692;2023-06-04T01:14:04;102389.41;;;16.67;51.23
78383;BME280;67668;52.294;4.692;2023-06-04T01:22:02;102392.78;;;16.59;51.68
78383;BME280;67668;52.294;4.692;2023-06-04T01:24:29;102396.72;;;16.55;51.78
78383;BME280;67668;52.294;4.692;2023-06-04T01:26:59;102393.31;;;16.53;51.91
78383;BME280;67668;52.294;4.692;2023-06-04T01:29:26;102390.09;;;16.49;51.84
78383;BME280;67668;52.294;4.692;2023-06-04T01:31:56;102397.38;;;16.47;52.11
78383;BME280;67668;52.294;4.692;2023-06-04T01:34:23;102389.66;;;16.44;52.22
78383;BME280;67668;52.294;4.692;2023-06-04T01:36:48;102387.28;;;16.41;52.21
78383;BME280;67668;52.294;4.692;2023-06-04T01:39:13;102383.19;;;16.37;52.14
78383;BME280;67668;52.294;4.692;2023-06-04T01:41:39;102381.66;;;16.35;52.46
78383;BME280;67668;52.294;4.692;2023-06-04T01:44:04;102389.81;;;16.33;52.49
78383;BME280;67668;52.294;4.692;2023-06-04T01:46:30;102386.59;;;16.30;52.55
78383;BME280;67668;52.294;4.692;2023-06-04T01:48:56;102386.88;;;16.27;52.59
78383;BME280;67668;52.294;4.692;2023-06-04T01:51:21;102385.28;;;16.24;52.60
78383;BME280;67668;52.294;4.692;2023-06-04T01:53:46;102383.75;;;16.22;52.91
78383;BME280;67668;52.294;4.692;2023-06-04T01:56:14;102391.94;;;16.20;52.90
78383;BME280;67668;52.294;4.692;2023-06-04T01:58:39;102388.69;;;16.17;52.91
78383;BME280;67668;52.294;4.692;2023-06-04T02:01:05;102389.78;;;16.14;52.85
78383;BME280;67668;52.294;4.692;2023-06-04T02:03:32;102383.91;;;16.11;53.13
78383;BME280;67668;52.294;4.692;2023-06-04T02:06:03;102387.69;;;16.08;53.11
78383;BME280;67668;52.294;4.692;2023-06-04T02:08:29;102383.63;;;16.04;52.99
78383;BME280;67668;52.294;4.692;2023-06-04T02:10:55;102383.06;;;16.00;53.04
78383;BME280;67668;52.294;4.692;2023-06-04T02:13:20;102384.03;;;15.99;53.13
78383;BME280;67668;52.294;4.692;2023-06-04T02:15:46;102377.97;;;15.97;53.07
78383;BME280;67668;52.294;4.692;2023-06-04T02:18:20;102386.25;;;15.94;53.45
78383;BME280;67668;52.294;4.692;2023-06-04T02:20:50;102375.00;;;15.91;53.28
78383;BME280;67668;52.294;4.692;2023-06-04T02:23:17;102377.84;;;15.89;53.28
78383;BME280;67668;52.294;4.692;2023-06-04T02:25:43;102379.94;;;15.86;53.72
78383;BME280;67668;52.294;4.692;2023-06-04T02:28:12;102386.41;;;15.83;53.50
78383;BME280;67668;52.294;4.692;2023-06-04T02:30:38;102376.00;;;15.80;53.64
78383;BME280;67668;52.294;4.692;2023-06-04T02:33:04;102383.28;;;15.78;53.79
78383;BME280;67668;52.294;4.692;2023-06-04T02:35:32;102387.94;;;15.76;54.00
78383;BME280;67668;52.294;4.692;2023-06-04T02:37:57;102383.84;;;15.72;53.89
78383;BME280;67668;52.294;4.692;2023-06-04T02:40:27;102378.66;;;15.71;54.06
78383;BME280;67668;52.294;4.692;2023-06-04T02:42:54;102385.09;;;15.68;53.76
78383;BME280;67668;52.294;4.692;2023-06-04T02:45:20;102379.06;;;15.66;53.99
78383;BME280;67668;52.294;4.692;2023-06-04T02:47:45;102378.38;;;15.64;54.12
78383;BME280;67668;52.294;4.692;2023-06-04T02:50:12;102374.97;;;15.62;54.27
78383;BME280;67668;52.294;4.692;2023-06-04T02:52:38;102379.63;;;15.60;54.34
78383;BME280;67668;52.294;4.692;2023-06-04T02:55:05;102373.72;;;15.57;54.56
78383;BME280;67668;52.294;4.692;2023-06-04T02:57:34;102379.16;;;15.55;54.26
78383;BME280;67668;52.294;4.692;2023-06-04T02:59:59;102376.78;;;15.52;54.73
78383;BME280;67668;52.294;4.692;2023-06-04T03:02:25;102389.28;;;15.51;54.62
78383;BME280;67668;52.294;4.692;2023-06-04T03:04:51;102388.69;;;15.48;54.89
78383;BME280;67668;52.294;4.692;2023-06-04T03:07:17;102387.13;;;15.45;54.95
78383;BME280;67668;52.294;4.692;2023-06-04T03:09:49;102386.53;;;15.42;55.04
78383;BME280;67668;52.294;4.692;2023-06-04T03:12:15;102378.69;;;15.40;54.86
78383;BME280;67668;52.294;4.692;2023-06-04T03:14:40;102378.81;;;15.39;55.10
78383;BME280;67668;52.294;4.692;2023-06-04T03:17:06;102376.41;;;15.36;55.24
78383;BME280;67668;52.294;4.692;2023-06-04T03:19:36;102379.34;;;15.33;55.38
78383;BME280;67668;52.294;4.692;2023-06-04T03:22:04;102370.66;;;15.31;55.35
78383;BME280;67668;52.294;4.692;2023-06-04T03:24:37;102367.25;;;15.29;55.23
78383;BME280;67668;52.294;4.692;2023-06-04T03:27:03;102372.88;;;15.26;55.54
78383;BME280;67668;52.294;4.692;2023-06-04T03:29:29;102373.84;;;15.25;55.66
78383;BME280;67668;52.294;4.692;2023-06-04T03:31:55;102373.13;;;15.23;55.63
78383;BME280;67668;52.294;4.692;2023-06-04T03:34:21;102368.06;;;15.20;55.66
78383;BME280;67668;52.294;4.692;2023-06-04T03:36:51;102370.84;;;15.18;55.83
78383;BME280;67668;52.294;4.692;2023-06-04T03:39:16;102372.81;;;15.16;56.13
78383;BME280;67668;52.294;4.692;2023-06-04T03:41:43;102370.28;;;15.15;56.24
78383;BME280;67668;52.294;4.692;2023-06-04T03:44:08;102373.22;;;15.12;55.96
78383;BME280;67668;52.294;4.692;2023-06-04T03:46:34;102374.34;;;15.09;56.06
78383;BME280;67668;52.294;4.692;2023-06-04T03:49:02;102374.50;;;15.08;56.25
78383;BME280;67668;52.294;4.692;2023-06-04T03:51:27;102371.09;;;15.06;56.37
78383;BME280;67668;52.294;4.692;2023-06-04T03:53:53;102377.53;;;15.03;56.52
78383;BME280;67668;52.294;4.692;2023-06-04T03:56:18;102373.31;;;15.00;56.43
78383;BME280;67668;52.294;4.692;2023-06-04T03:58:44;102377.94;;;14.98;56.82
78383;BME280;67668;52.294;4.692;2023-06-04T04:01:10;102374.41;;;14.98;57.19
78383;BME280;67668;52.294;4.692;2023-06-04T04:03:36;102379.19;;;14.94;57.39
78383;BME280;67668;52.294;4.692;2023-06-04T04:06:02;102383.69;;;14.94;57.58
78383;BME280;67668;52.294;4.692;2023-06-04T04:08:28;102375.81;;;14.92;57.71
78383;BME280;67668;52.294;4.692;2023-06-04T04:10:59;102374.25;;;14.90;57.62
78383;BME280;67668;52.294;4.692;2023-06-04T04:13:25;102377.03;;;14.88;57.90
78383;BME280;67668;52.294;4.692;2023-06-04T04:15:50;102381.66;;;14.86;58.04
78383;BME280;67668;52.294;4.692;2023-06-04T04:18:22;102377.31;;;14.85;58.38
78383;BME280;67668;52.294;4.692;2023-06-04T04:20:48;102378.31;;;14.84;58.51
78383;BME280;67668;52.294;4.692;2023-06-04T04:23:14;102381.09;;;14.83;58.49
78383;BME280;67668;52.294;4.692;2023-06-04T04:25:39;102380.22;;;14.82;59.01
78383;BME280;67668;52.294;4.692;2023-06-04T04:28:05;102380.38;;;14.81;58.90
78383;BME280;67668;52.294;4.692;2023-06-04T04:30:34;102377.13;;;14.77;59.25
78383;BME280;67668;52.294;4.692;2023-06-04T04:33:03;102388.66;;;14.78;58.79
78383;BME280;67668;52.294;4.692;2023-06-04T04:35:31;102384.41;;;14.75;58.93
78383;BME280;67668;52.294;4.692;2023-06-04T04:38:00;102384.53;;;14.74;59.65
78383;BME280;67668;52.294;4.692;2023-06-04T04:40:28;102375.69;;;14.73;59.58
78383;BME280;67668;52.294;4.692;2023-06-04T04:42:54;102383.00;;;14.71;59.93
78383;BME280;67668;52.294;4.692;2023-06-04T04:45:19;102385.66;;;14.71;60.09
78383;BME280;67668;52.294;4.692;2023-06-04T04:47:46;102383.00;;;14.71;60.29
78383;BME280;67668;52.294;4.692;2023-06-04T04:50:11;102380.44;;;14.70;60.38
78383;BME280;67668;52.294;4.692;2023-06-04T04:52:37;102383.97;;;14.70;60.74
78383;BME280;67668;52.294;4.692;2023-06-04T04:55:03;102379.59;;;14.69;60.54
78383;BME280;67668;52.294;4.692;2023-06-04T04:57:29;102384.91;;;14.69;61.04
78383;BME280;67668;52.294;4.692;2023-06-04T04:59:54;102388.31;;;14.71;61.17
78383;BME280;67668;52.294;4.692;2023-06-04T05:02:19;102391.81;;;14.72;61.26
78383;BME280;67668;52.294;4.692;2023-06-04T05:04:45;102390.84;;;14.73;61.09
78383;BME280;67668;52.294;4.692;2023-06-04T05:07:10;102392.66;;;14.72;60.86
78383;BME280;67668;52.294;4.692;2023-06-04T05:09:36;102387.31;;;14.72;61.27
78383;BME280;67668;52.294;4.692;2023-06-04T05:12:01;102387.22;;;14.74;61.32
78383;BME280;67668;52.294;4.692;2023-06-04T05:14:27;102387.91;;;14.76;61.50
78383;BME280;67668;52.294;4.692;2023-06-04T05:16:53;102386.09;;;14.76;61.66
78383;BME280;67668;52.294;4.692;2023-06-04T05:19:22;102380.50;;;14.79;61.66
78383;BME280;67668;52.294;4.692;2023-06-04T05:21:49;102376.88;;;14.80;61.56
78383;BME280;67668;52.294;4.692;2023-06-04T05:24:14;102378.56;;;14.81;61.95
78383;BME280;67668;52.294;4.692;2023-06-04T05:26:40;102387.97;;;14.85;61.93
78383;BME280;67668;52.294;4.692;2023-06-04T05:29:06;102388.69;;;14.87;61.83
78383;BME280;67668;52.294;4.692;2023-06-04T05:31:32;102387.44;;;14.91;62.14
78383;BME280;67668;52.294;4.692;2023-06-04T05:33:59;102385.34;;;14.95;62.18
78383;BME280;67668;52.294;4.692;2023-06-04T05:36:27;102384.97;;;14.99;62.38
78383;BME280;67668;52.294;4.692;2023-06-04T05:38:52;102384.44;;;15.06;61.59
78383;BME280;67668;52.294;4.692;2023-06-04T05:41:28;102391.06;;;15.11;62.36
78383;BME280;67668;52.294;4.692;2023-06-04T05:43:53;102389.53;;;15.18;61.44
78383;BME280;67668;52.294;4.692;2023-06-04T05:46:19;102390.84;;;15.24;61.37
78383;BME280;67668;52.294;4.692;2023-06-04T05:48:44;102390.16;;;15.31;61.45
78383;BME280;67668;52.294;4.692;2023-06-04T05:51:12;102394.81;;;15.39;61.04
78383;BME280;67668;52.294;4.692;2023-06-04T05:53:37;102382.63;;;15.46;61.10
78383;BME280;67668;52.294;4.692;2023-06-04T05:56:03;102394.47;;;15.53;60.58
78383;BME280;67668;52.294;4.692;2023-06-04T05:58:28;102394.63;;;15.61;60.54
78383;BME280;67668;52.294;4.692;2023-06-04T06:00:54;102401.13;;;15.68;60.73
78383;BME280;67668;52.294;4.692;2023-06-04T06:03:19;102400.31;;;15.77;59.93
78383;BME280;67668;52.294;4.692;2023-06-04T06:05:44;102399.47;;;15.86;60.40
78383;BME280;67668;52.294;4.692;2023-06-04T06:08:10;102405.69;;;15.96;59.55
78383;BME280;67668;52.294;4.692;2023-06-04T06:10:36;102400.34;;;16.06;59.27
78383;BME280;67668;52.294;4.692;2023-06-04T06:13:01;102402.75;;;16.19;59.33
78383;BME280;67668;52.294;4.692;2023-06-04T06:15:27;102404.16;;;16.32;59.05
78383;BME280;67668;52.294;4.692;2023-06-04T06:17:53;102407.09;;;16.48;59.91
78383;BME280;67668;52.294;4.692;2023-06-04T06:20:19;102408.94;;;16.67;60.54
78383;BME280;67668;52.294;4.692;2023-06-04T06:22:45;102405.41;;;16.86;58.62
78383;BME280;67668;52.294;4.692;2023-06-04T06:25:11;102399.44;;;17.01;57.26
78383;BME280;67668;52.294;4.692;2023-06-04T06:27:41;102406.69;;;17.19;56.96
78383;BME280;67668;52.294;4.692;2023-06-04T06:30:07;102406.38;;;17.31;56.08
78383;BME280;67668;52.294;4.692;2023-06-04T06:32:33;102410.41;;;17.45;56.51
78383;BME280;67668;52.294;4.692;2023-06-04T06:34:58;102412.75;;;17.58;55.19
78383;BME280;67668;52.294;4.692;2023-06-04T06:37:24;102410.81;;;17.77;55.95
78383;BME280;67668;52.294;4.692;2023-06-04T06:39:49;102407.75;;;17.90;53.52
78383;BME280;67668;52.294;4.692;2023-06-04T06:42:15;102413.75;;;18.01;53.09
78383;BME280;67668;52.294;4.692;2023-06-04T06:44:43;102417.75;;;18.15;53.38
78383;BME280;67668;52.294;4.692;2023-06-04T06:47:09;102414.81;;;18.26;52.01
78383;BME280;67668;52.294;4.692;2023-06-04T06:49:35;102420.66;;;18.39;52.34
78383;BME280;67668;52.294;4.692;2023-06-04T06:52:01;102418.16;;;18.55;52.33
78383;BME280;67668;52.294;4.692;2023-06-04T06:54:26;102416.91;;;18.68;50.92
78383;BME280;67668;52.294;4.692;2023-06-04T06:56:52;102419.88;;;18.82;50.93
78383;BME280;67668;52.294;4.692;2023-06-04T06:59:18;102413.91;;;18.96;50.22
78383;BME280;67668;52.294;4.692;2023-06-04T07:01:43;102416.88;;;19.11;50.31
78383;BME280;67668;52.294;4.692;2023-06-04T07:04:09;102416.44;;;19.24;49.77
78383;BME280;67668;52.294;4.692;2023-06-04T07:06:34;102416.81;;;19.37;49.60
78383;BME280;67668;52.294;4.692;2023-06-04T07:09:01;102419.63;;;19.53;49.32
78383;BME280;67668;52.294;4.692;2023-06-04T07:11:26;102425.22;;;19.68;49.28
78383;BME280;67668;52.294;4.692;2023-06-04T07:13:52;102425.59;;;19.81;48.56
78383;BME280;67668;52.294;4.692;2023-06-04T07:16:17;102421.78;;;19.91;47.71
78383;BME280;67668;52.294;4.692;2023-06-04T07:18:47;102421.09;;;20.05;48.10
78383;BME280;67668;52.294;4.692;2023-06-04T07:21:13;102425.84;;;20.20;47.85
78383;BME280;67668;52.294;4.692;2023-06-04T07:23:38;102424.25;;;20.35;47.72
78383;BME280;67668;52.294;4.692;2023-06-04T07:26:03;102421.19;;;20.46;47.27
78383;BME280;67668;52.294;4.692;2023-06-04T07:28:29;102421.53;;;20.59;46.84
78383;BME280;67668;52.294;4.692;2023-06-04T07:30:54;102426.25;;;20.73;46.97
78383;BME280;67668;52.294;4.692;2023-06-04T07:33:20;102427.75;;;20.84;44.74
78383;BME280;67668;52.294;4.692;2023-06-04T07:35:45;102429.56;;;20.99;45.40
78383;BME280;67668;52.294;4.692;2023-06-04T07:38:11;102430.41;;;21.16;44.87
78383;BME280;67668;52.294;4.692;2023-06-04T07:40:36;102430.22;;;21.26;44.60
78383;BME280;67668;52.294;4.692;2023-06-04T07:43:02;102424.81;;;21.34;43.76
78383;BME280;67668;52.294;4.692;2023-06-04T07:45:27;102424.41;;;21.45;43.09
78383;BME280;67668;52.294;4.692;2023-06-04T07:47:54;102424.19;;;21.54;44.36
78383;BME280;67668;52.294;4.692;2023-06-04T07:50:20;102424.31;;;21.69;44.33
78383;BME280;67668;52.294;4.692;2023-06-04T07:52:46;102419.03;;;21.84;43.74
78383;BME280;67668;52.294;4.692;2023-06-04T07:55:11;102423.66;;;21.98;43.27
78383;BME280;67668;52.294;4.692;2023-06-04T07:57:37;102416.69;;;22.11;43.70
78383;BME280;67668;52.294;4.692;2023-06-04T08:00:02;102418.59;;;22.26;42.89
78383;BME280;67668;52.294;4.692;2023-06-04T08:02:29;102426.22;;;22.45;42.20
78383;BME280;67668;52.294;4.692;2023-06-04T08:04:55;102417.97;;;22.61;42.03
78383;BME280;67668;52.294;4.692;2023-06-04T08:07:21;102423.44;;;22.76;41.50
78383;BME280;67668;52.294;4.692;2023-06-04T08:09:46;102428.22;;;22.88;40.62
78383;BME280;67668;52.294;4.692;2023-06-04T08:12:12;102421.53;;;22.99;40.54
78383;BME280;67668;52.294;4.692;2023-06-04T08:14:37;102422.75;;;23.11;38.54
78383;BME280;67668;52.294;4.692;2023-06-04T08:17:03;102422.28;;;23.22;39.79
78383;BME280;67668;52.294;4.692;2023-06-04T08:19:28;102428.91;;;23.34;39.49
78383;BME280;67668;52.294;4.692;2023-06-04T08:21:54;102430.31;;;23.45;38.65
78383;BME280;67668;52.294;4.692;2023-06-04T08:24:21;102434.69;;;23.60;39.77
78383;BME280;67668;52.294;4.692;2023-06-04T08:26:46;102432.34;;;23.72;39.82
78383;BME280;67668;52.294;4.692;2023-06-04T08:29:12;102439.78;;;23.85;39.58
78383;BME280;67668;52.294;4.692;2023-06-04T08:31:37;102433.28;;;24.00;37.42
78383;BME280;67668;52.294;4.692;2023-06-04T08:34:05;102426.94;;;24.08;37.09
78383;BME280;67668;52.294;4.692;2023-06-04T08:36:31;102433.53;;;24.20;37.21
78383;BME280;67668;52.294;4.692;2023-06-04T08:38:58;102433.88;;;24.32;37.93
78383;BME280;67668;52.294;4.692;2023-06-04T08:41:34;102439.81;;;24.42;38.39
78383;BME280;67668;52.294;4.692;2023-06-04T08:44:04;102436.94;;;24.50;37.02
78383;BME280;67668;52.294;4.692;2023-06-04T08:46:32;102444.09;;;24.57;37.50
78383;BME280;67668;52.294;4.692;2023-06-04T08:49:01;102436.94;;;24.71;37.22
78383;BME280;67668;52.294;4.692;2023-06-04T08:51:28;102428.31;;;24.82;36.26
78383;BME280;67668;52.294;4.692;2023-06-04T08:53:58;102439.25;;;24.95;36.09
78383;BME280;67668;52.294;4.692;2023-06-04T08:56:24;102441.22;;;25.08;36.67
78383;BME280;67668;52.294;4.692;2023-06-04T08:58:51;102437.75;;;25.20;36.13
78383;BME280;67668;52.294;4.692;2023-06-04T09:01:17;102441.56;;;25.33;36.17
78383;BME280;67668;52.294;4.692;2023-06-04T09:03:43;102438.09;;;25.45;34.58
78383;BME280;67668;52.294;4.692;2023-06-04T09:06:08;102442.13;;;25.56;34.62
78383;BME280;67668;52.294;4.692;2023-06-04T09:08:35;102440.94;;;25.65;34.01
78383;BME280;67668;52.294;4.692;2023-06-04T09:11:08;102451.00;;;25.78;35.09
78383;BME280;67668;52.294;4.692;2023-06-04T09:13:36;102442.25;;;25.89;32.28
78383;BME280;67668;52.294;4.692;2023-06-04T09:16:04;102440.66;;;26.01;33.38
78383;BME280;67668;52.294;4.692;2023-06-04T09:18:31;102435.44;;;26.06;32.14
78383;BME280;67668;52.294;4.692;2023-06-04T09:21:06;102444.22;;;26.14;32.14
78383;BME280;67668;52.294;4.692;2023-06-04T09:23:43;102458.28;;;26.25;30.55
78383;BME280;67668;52.294;4.692;2023-06-04T09:26:09;102442.00;;;26.38;32.86
78383;BME280;67668;52.294;4.692;2023-06-04T09:28:39;102449.09;;;26.52;33.36
78383;BME280;67668;52.294;4.692;2023-06-04T09:31:08;102449.09;;;26.65;32.40
78383;BME280;67668;52.294;4.692;2023-06-04T09:33:54;102458.94;;;26.79;32.23
78383;BME280;67668;52.294;4.692;2023-06-04T09:36:19;102453.94;;;26.89;31.99
78383;BME280;67668;52.294;4.692;2023-06-04T09:38:45;102456.47;;;27.04;29.54
78383;BME280;67668;52.294;4.692;2023-06-04T09:41:15;102461.03;;;27.16;31.30
78383;BME280;67668;52.294;4.692;2023-06-04T09:43:41;102458.72;;;27.27;29.70
78383;BME280;67668;52.294;4.692;2023-06-04T09:48:36;102449.91;;;27.44;28.86
78383;BME280;67668;52.294;4.692;2023-06-04T09:51:14;102454.47;;;27.57;28.21
78383;BME280;67668;52.294;4.692;2023-06-04T09:53:58;102457.75;;;27.72;28.84
78383;BME280;67668;52.294;4.692;2023-06-04T09:56:24;102460.66;;;27.84;29.28
78383;BME280;67668;52.294;4.692;2023-06-04T09:58:53;102463.94;;;27.92;27.78
78383;BME280;67668;52.294;4.692;2023-06-04T10:01:20;102459.31;;;27.99;28.70
78383;BME280;67668;52.294;4.692;2023-06-04T10:03:47;102449.00;;;28.08;29.10
78383;BME280;67668;52.294;4.692;2023-06-04T10:06:17;102460.94;;;28.13;27.73
78383;BME280;67668;52.294;4.692;2023-06-04T10:08:45;102458.13;;;28.27;28.50
78383;BME280;67668;52.294;4.692;2023-06-04T10:11:12;102455.75;;;28.37;29.37
78383;BME280;67668;52.294;4.692;2023-06-04T10:13:48;102441.84;;;28.45;26.57
78383;BME280;67668;52.294;4.692;2023-06-04T10:16:17;102454.53;;;28.57;27.92
78383;BME280;67668;52.294;4.692;2023-06-04T10:18:44;102453.44;;;28.65;29.01
78383;BME280;67668;52.294;4.692;2023-06-04T10:21:13;102451.13;;;28.68;27.66
78383;BME280;67668;52.294;4.692;2023-06-04T10:23:38;102460.63;;;28.84;27.80
78383;BME280;67668;52.294;4.692;2023-06-04T10:26:04;102454.84;;;28.99;28.61
78383;BME280;67668;52.294;4.692;2023-06-04T10:28:29;102456.59;;;29.11;28.48
78383;BME280;67668;52.294;4.692;2023-06-04T10:30:55;102464.72;;;29.18;27.46
78383;BME280;67668;52.294;4.692;2023-06-04T10:33:21;102459.84;;;29.27;28.27
78383;BME280;67668;52.294;4.692;2023-06-04T10:35:50;102461.59;;;29.39;26.86
78383;BME280;67668;52.294;4.692;2023-06-04T10:38:16;102464.38;;;29.51;26.39
78383;BME280;67668;52.294;4.692;2023-06-04T10:40:46;102461.13;;;29.60;25.77
78383;BME280;67668;52.294;4.692;2023-06-04T10:43:13;102460.56;;;29.70;26.58
78383;BME280;67668;52.294;4.692;2023-06-04T10:45:41;102454.44;;;29.74;25.28
78383;BME280;67668;52.294;4.692;2023-06-04T10:48:09;102451.63;;;29.81;26.23
78383;BME280;67668;52.294;4.692;2023-06-04T10:50:47;102452.41;;;29.88;26.96
78383;BME280;67668;52.294;4.692;2023-06-04T10:53:13;102447.06;;;29.93;25.34
78383;BME280;67668;52.294;4.692;2023-06-04T10:55:47;102455.91;;;30.07;24.89
78383;BME280;67668;52.294;4.692;2023-06-04T10:58:13;102458.69;;;30.18;24.23
78383;BME280;67668;52.294;4.692;2023-06-04T11:00:41;102452.50;;;30.23;25.73
78383;BME280;67668;52.294;4.692;2023-06-04T11:03:09;102462.16;;;30.25;24.76
78383;BME280;67668;52.294;4.692;2023-06-04T11:05:39;102468.97;;;30.35;25.71
78383;BME280;67668;52.294;4.692;2023-06-04T11:08:06;102466.22;;;30.35;24.17
78383;BME280;67668;52.294;4.692;2023-06-04T11:10:34;102457.72;;;30.43;24.82
78383;BME280;67668;52.294;4.692;2023-06-04T11:13:00;102453.59;;;30.52;24.63
78383;BME280;67668;52.294;4.692;2023-06-04T11:15:25;102457.84;;;30.59;24.25
78383;BME280;67668;52.294;4.692;2023-06-04T11:17:54;102453.38;;;30.65;24.39
78383;BME280;67668;52.294;4.692;2023-06-04T11:20:21;102447.31;;;30.74;25.26
78383;BME280;67668;52.294;4.692;2023-06-04T11:22:54;102449.09;;;30.81;24.40
78383;BME280;67668;52.294;4.692;2023-06-04T11:25:24;102447.44;;;30.91;24.30
78383;BME280;67668;52.294;4.692;2023-06-04T11:27:52;102451.75;;;30.99;24.95
78383;BME280;67668;52.294;4.692;2023-06-04T11:30:18;102445.19;;;31.00;24.52
78383;BME280;67668;52.294;4.692;2023-06-04T11:32:43;102443.19;;;31.07;24.67
78383;BME280;67668;52.294;4.692;2023-06-04T11:35:09;102433.44;;;31.11;23.93
78383;BME280;67668;52.294;4.692;2023-06-04T11:37:36;102444.25;;;31.17;24.44
78383;BME280;67668;52.294;4.692;2023-06-04T11:40:01;102440.31;;;31.25;24.92
78383;BME280;67668;52.294;4.692;2023-06-04T11:42:29;102438.59;;;31.36;24.10
78383;BME280;67668;52.294;4.692;2023-06-04T11:44:58;102440.41;;;31.42;23.85
78383;BME280;67668;52.294;4.692;2023-06-04T11:47:24;102423.16;;;31.41;23.44
78383;BME280;67668;52.294;4.692;2023-06-04T11:49:56;102434.44;;;31.45;23.02
78383;BME280;67668;52.294;4.692;2023-06-04T11:52:21;102434.09;;;31.53;22.41
78383;BME280;67668;52.294;4.692;2023-06-04T11:54:47;102429.66;;;31.63;22.50
78383;BME280;67668;52.294;4.692;2023-06-04T11:57:13;102420.47;;;31.69;23.38
78383;BME280;67668;52.294;4.692;2023-06-04T11:59:39;102427.75;;;31.64;22.51
78383;BME280;67668;52.294;4.692;2023-06-04T12:02:06;102418.63;;;31.58;22.73
78383;BME280;67668;52.294;4.692;2023-06-04T12:04:32;102408.81;;;31.62;23.71
78383;BME280;67668;52.294;4.692;2023-06-04T12:06:59;102418.97;;;31.62;23.57
78383;BME280;67668;52.294;4.692;2023-06-04T12:09:27;102420.09;;;31.66;23.79
78383;BME280;67668;52.294;4.692;2023-06-04T12:12:03;102412.66;;;31.61;22.59
78383;BME280;67668;52.294;4.692;2023-06-04T12:14:29;102412.66;;;31.61;22.14
78383;BME280;67668;52.294;4.692;2023-06-04T12:17:02;102408.78;;;31.74;22.35
78383;BME280;67668;52.294;4.692;2023-06-04T12:19:30;102407.72;;;31.75;22.01
78383;BME280;67668;52.294;4.692;2023-06-04T12:22:04;102418.66;;;31.75;22.97
78383;BME280;67668;52.294;4.692;2023-06-04T12:24:30;102413.91;;;31.70;22.79
78383;BME280;67668;52.294;4.692;2023-06-04T12:27:07;102409.00;;;31.72;23.12
78383;BME280;67668;52.294;4.692;2023-06-04T12:29:34;102409.28;;;31.71;21.76
78383;BME280;67668;52.294;4.692;2023-06-04T12:32:03;102415.81;;;31.70;21.87
78383;BME280;67668;52.294;4.692;2023-06-04T12:34:31;102421.63;;;31.73;22.93
78383;BME280;67668;52.294;4.692;2023-06-04T12:36:57;102412.69;;;31.78;23.06
78383;BME280;67668;52.294;4.692;2023-06-04T12:39:22;102414.09;;;31.81;23.12
78383;BME280;67668;52.294;4.692;2023-06-04T12:41:48;102406.72;;;31.81;22.95
78383;BME280;67668;52.294;4.692;2023-06-04T12:44:14;102413.03;;;31.82;21.73
78383;BME280;67668;52.294;4.692;2023-06-04T12:46:39;102414.34;;;31.79;22.70
78383;BME280;67668;52.294;4.692;2023-06-04T12:49:04;102414.84;;;31.76;22.00
78383;BME280;67668;52.294;4.692;2023-06-04T12:51:30;102411.19;;;31.70;21.94
78383;BME280;67668;52.294;4.692;2023-06-04T12:53:56;102415.25;;;31.68;21.63
78383;BME280;67668;52.294;4.692;2023-06-04T12:56:22;102406.34;;;31.61;21.48
78383;BME280;67668;52.294;4.692;2023-06-04T12:58:47;102410.13;;;31.60;22.11